Time;durP1;ratioP1;P1;durP2;ratioP2;P2;SDS_P1;SDS_P2;PMS_P1;PMS_P2;Temp;Humidity;BMP_temperature;BMP_pressure;BME280_temperature;BME280_humidity;BME280_pressure;Samples;Min_cycle;Max_cycle;Signal;HPM_P1;HPM_P2
2023/06/19 04:18:04;;;;;;;15.27;11.83;;;;;;;15.01;100.00;100259.19;5554771;32;333887;-90
2023/06/19 04:21:08;;;;;;;15.63;11.88;;;;;;;15.12;100.00;100266.44;5544726;32;33450;-90
2023/06/19 04:24:11;;;;;;;15.73;11.45;;;;;;;15.33;100.00;100259.56;5528013;32;33583;-89
2023/06/19 04:27:14;;;;;;;12.90;10.77;;;;;;;15.53;100.00;100267.13;5526200;32;34269;-90
2023/06/19 04:30:16;;;;;;;14.68;10.50;;;;;;;15.63;100.00;100270.81;5526858;32;33805;-90
2023/06/19 04:33:21;;;;;;;13.60;10.63;;;;;;;15.75;100.00;100271.75;5525136;32;34009;-90
2023/06/19 04:36:24;;;;;;;13.10;9.80;;;;;;;15.80;100.00;100269.59;5525659;32;34197;-90
2023/06/19 04:39:27;;;;;;;20.33;10.85;;;;;;;15.87;100.00;100262.84;5529580;32;33835;-90
2023/06/19 04:42:29;;;;;;;14.75;10.38;;;;;;;16.13;100.00;100265.41;5525381;32;34000;-89
2023/06/19 04:45:32;;;;;;;14.50;10.40;;;;;;;16.38;100.00;100268.91;5525422;32;33616;-90
2023/06/19 04:48:36;;;;;;;12.35;10.27;;;;;;;16.69;100.00;100277.25;5525007;32;34396;-90
2023/06/19 04:51:41;;;;;;;13.80;9.57;;;;;;;16.89;100.00;100276.69;5541752;32;34034;-89
2023/06/19 04:54:43;;;;;;;14.15;9.85;;;;;;;17.01;100.00;100281.09;5545185;32;33804;-89
2023/06/19 04:57:46;;;;;;;11.57;9.05;;;;;;;17.25;100.00;100280.13;5545300;32;33295;-90
2023/06/19 05:00:50;;;;;;;10.45;9.35;;;;;;;17.32;100.00;100276.00;5545619;32;34342;-90
2023/06/19 05:03:56;;;;;;;11.40;9.13;;;;;;;17.52;100.00;100286.94;5545336;32;34999;-92
2023/06/19 05:06:59;;;;;;;12.15;9.00;;;;;;;17.60;100.00;100281.81;5546329;32;34211;-90
2023/06/19 05:10:02;;;;;;;11.18;8.48;;;;;;;17.78;100.00;100281.28;5530983;32;33359;-91
2023/06/19 05:13:04;;;;;;;10.02;8.27;;;;;;;18.06;100.00;100295.16;5526212;32;33612;-90
2023/06/19 05:16:07;;;;;;;10.00;8.32;;;;;;;18.45;100.00;100291.94;5526131;32;34450;-90
2023/06/19 05:19:10;;;;;;;10.43;8.38;;;;;;;18.56;100.00;100293.72;5530163;32;33961;-90
2023/06/19 05:22:13;;;;;;;12.18;7.70;;;;;;;18.99;100.00;100295.41;5529151;32;34237;-89
2023/06/19 05:25:16;;;;;;;9.63;7.75;;;;;;;19.54;100.00;100296.06;5527564;32;35153;-90
2023/06/19 05:28:18;;;;;;;9.73;8.73;;;;;;;20.46;99.93;100304.00;5518051;32;33519;-90
2023/06/19 05:31:21;;;;;;;11.68;8.65;;;;;;;21.02;93.29;100308.75;5513821;32;34799;-90
2023/06/19 05:38:02;;;;;;;9.88;7.93;;;;;;;20.42;99.13;100305.28;4939551;29;20144;-91
2023/06/19 05:41:06;;;;;;;10.35;7.60;;;;;;;21.59;95.42;100307.81;5513375;32;33566;-90
2023/06/19 05:44:09;;;;;;;8.75;7.85;;;;;;;23.91;81.64;100297.87;5515621;32;34206;-91
2023/06/19 05:47:12;;;;;;;9.90;7.05;;;;;;;26.45;68.66;100302.97;5548138;32;33636;-92
2023/06/19 06:01:53;;;;;;;9.68;7.53;;;;;;;29.41;45.57;100326.41;814421;27;20943;-88
2023/06/19 06:04:56;;;;;;;7.90;7.10;;;;;;;29.87;45.55;100329.59;5404582;33;32204;-92
2023/06/19 06:07:59;;;;;;;7.60;6.62;;;;;;;31.58;40.86;100330.22;5406276;33;34106;-88
2023/06/19 06:11:02;;;;;;;9.73;7.18;;;;;;;32.50;38.11;100336.47;5421418;27;33363;-88
2023/06/19 06:14:04;;;;;;;9.40;7.00;;;;;;;33.70;35.88;100339.09;5419793;32;33612;-88
2023/06/19 06:17:07;;;;;;;7.30;6.60;;;;;;;34.39;32.13;100340.62;5420273;32;33976;-88
2023/06/19 06:20:13;;;;;;;7.12;6.40;;;;;;;33.47;32.98;100328.75;5420814;32;33512;-87
2023/06/19 06:23:16;;;;;;;8.25;6.47;;;;;;;33.08;33.97;100328.97;5432815;27;34368;-88
2023/06/19 06:26:19;;;;;;;8.07;6.72;;;;;;;32.32;35.83;100334.47;5485585;27;34163;-90
2023/06/19 06:29:21;;;;;;;7.35;6.65;;;;;;;33.82;33.42;100341.03;5422047;32;33610;-89
2023/06/19 06:32:24;;;;;;;7.55;6.50;;;;;;;34.30;32.55;100342.06;5426171;32;33287;-89
2023/06/19 06:35:30;;;;;;;7.57;6.32;;;;;;;32.48;35.14;100333.09;5414625;32;34782;-89
2023/06/19 06:38:33;;;;;;;7.97;7.20;;;;;;;29.29;41.04;100334.34;5412775;32;34321;-88
2023/06/19 06:41:36;;;;;;;17.77;7.80;;;;;;;28.35;43.43;100333.59;5407856;32;34277;-88
2023/06/19 06:44:39;;;;;;;9.45;6.70;;;;;;;27.90;45.79;100329.13;5407498;32;33626;-88
2023/06/19 06:47:42;;;;;;;10.02;7.37;;;;;;;27.42;47.30;100335.87;5412030;32;33242;-89
2023/06/19 06:50:45;;;;;;;49.72;9.50;;;;;;;26.85;48.82;100335.41;5413616;32;33627;-89
2023/06/19 06:53:48;;;;;;;14.52;7.70;;;;;;;26.48;50.30;100337.97;5402849;32;34368;-89
2023/06/19 06:56:52;;;;;;;9.80;6.78;;;;;;;26.78;49.86;100343.50;5400200;32;33917;-88
2023/06/19 06:59:55;;;;;;;10.18;7.03;;;;;;;26.84;49.44;100333.72;5408925;32;35167;-87
2023/06/19 07:02:58;;;;;;;8.73;7.35;;;;;;;26.63;49.36;100331.72;5412000;32;33789;-89
2023/06/19 07:06:02;;;;;;;17.25;8.30;;;;;;;25.33;53.94;100323.94;5404151;32;33508;-89
2023/06/19 07:09:05;;;;;;;13.77;7.75;;;;;;;25.66;52.26;100333.84;5410981;32;32924;-88
2023/06/19 07:12:08;;;;;;;15.40;7.70;;;;;;;25.86;51.90;100334.28;5414966;32;33585;-89
2023/06/19 07:15:11;;;;;;;12.82;7.47;;;;;;;26.43;50.37;100334.09;5403699;32;33457;-90
2023/06/19 07:18:14;;;;;;;12.85;7.87;;;;;;;27.03;49.85;100328.81;5409558;32;33338;-90
2023/06/19 07:21:17;;;;;;;15.10;9.23;;;;;;;27.49;49.21;100322.31;5414308;32;33680;-89
2023/06/19 07:24:23;;;;;;;13.57;7.85;;;;;;;26.51;50.21;100326.69;5411788;32;35249;-93
2023/06/19 07:27:32;;;;;;;28.08;9.35;;;;;;;26.49;50.85;100328.78;5406563;32;35126;-91
2023/06/19 07:30:35;;;;;;;8.90;8.10;;;;;;;26.89;51.28;100314.97;5409117;32;34671;-89
2023/06/19 07:33:38;;;;;;;13.73;8.15;;;;;;;27.55;49.35;100318.00;5403496;32;34956;-88
2023/06/19 07:36:42;;;;;;;12.40;8.32;;;;;;;28.10;46.39;100320.31;5407142;32;34539;-89
2023/06/19 07:39:49;;;;;;;10.23;8.45;;;;;;;27.62;45.09;100323.56;5409807;32;33687;-88
2023/06/19 07:42:52;;;;;;;11.45;8.43;;;;;;;27.82;46.35;100326.53;5412525;32;33913;-89
2023/06/19 07:45:55;;;;;;;20.05;8.80;;;;;;;28.07;44.45;100332.50;5415178;32;34283;-89
2023/06/19 07:48:58;;;;;;;15.20;8.60;;;;;;;27.22;47.84;100324.69;5408624;32;34289;-89
2023/06/19 07:52:01;;;;;;;15.32;8.32;;;;;;;27.10;47.64;100323.47;5404220;32;34459;-89
2023/06/19 07:55:04;;;;;;;14.65;8.75;;;;;;;27.56;47.76;100327.88;5404070;32;33033;-89
2023/06/19 07:58:07;;;;;;;11.85;7.95;;;;;;;28.03;45.55;100319.41;5414746;32;33741;-89
2023/06/19 08:01:10;;;;;;;14.32;7.97;;;;;;;28.69;45.74;100326.56;5417924;32;33646;-89
2023/06/19 08:04:13;;;;;;;11.73;8.30;;;;;;;29.21;42.46;100314.56;5417154;32;32606;-90
2023/06/19 08:07:16;;;;;;;9.25;7.82;;;;;;;29.12;42.64;100314.69;5416871;32;32647;-89
2023/06/19 08:10:19;;;;;;;9.07;7.78;;;;;;;30.01;40.85;100311.31;5401711;32;34906;-90
2023/06/19 08:13:22;;;;;;;15.00;8.65;;;;;;;29.29;42.60;100311.66;5404777;33;33645;-90
2023/06/19 08:16:25;;;;;;;8.68;7.78;;;;;;;29.78;41.60;100314.41;5422771;32;33568;-87
2023/06/19 08:19:28;;;;;;;10.43;7.78;;;;;;;30.15;40.15;100320.41;5418399;32;33696;-88
2023/06/19 08:22:35;;;;;;;13.57;7.60;;;;;;;30.17;41.06;100318.31;5417539;27;34657;-89
2023/06/19 08:36:30;;;;;;;11.57;7.83;;;;;;;29.55;40.34;100315.59;5383186;32;32941;-89
2023/06/19 08:39:35;;;;;;;9.27;8.07;;;;;;;30.31;39.74;100321.91;5371372;32;34170;-90
2023/06/19 08:42:39;;;;;;;9.55;7.57;;;;;;;30.77;39.21;100313.97;5381082;32;35548;-90
2023/06/19 08:46:14;;;;;;;9.00;7.43;;;;;;;31.17;38.24;100319.34;5381430;33;34544;-90
2023/06/19 08:49:17;;;;;;;11.90;6.68;;;;;;;31.99;36.83;100311.69;5380272;32;34312;-90
2023/06/19 08:52:20;;;;;;;9.45;7.07;;;;;;;32.50;35.88;100315.34;5379927;33;33838;-88
2023/06/19 08:55:23;;;;;;;11.12;7.22;;;;;;;32.50;34.70;100312.63;5371736;33;33895;-88
2023/06/19 08:58:27;;;;;;;11.80;7.60;;;;;;;32.43;36.37;100311.81;5378701;33;33456;-89
2023/06/19 09:01:29;;;;;;;13.27;7.32;;;;;;;32.53;35.60;100314.87;5379131;33;33847;-89
2023/06/19 09:04:33;;;;;;;9.85;7.20;;;;;;;33.14;35.33;100305.25;5375233;33;34330;-89
2023/06/19 09:07:36;;;;;;;10.32;7.03;;;;;;;33.64;34.69;100304.25;5368575;33;33664;-89
2023/06/19 09:10:39;;;;;;;10.75;7.32;;;;;;;32.83;34.29;100309.78;5383093;33;33920;-88
2023/06/19 09:13:41;;;;;;;16.85;7.12;;;;;;;33.64;33.64;100300.66;5383698;33;33820;-89
2023/06/19 09:16:44;;;;;;;7.93;6.82;;;;;;;33.46;32.52;100302.34;5379418;33;33584;-89
2023/06/19 09:19:49;;;;;;;8.57;6.68;;;;;;;33.41;32.97;100303.03;5363198;33;33912;-89
2023/06/19 09:22:57;;;;;;;7.95;7.15;;;;;;;34.38;32.22;100308.69;5363541;33;34128;-89
2023/06/19 09:26:00;;;;;;;8.05;6.50;;;;;;;34.77;32.00;100312.94;5364717;33;34195;-89
2023/06/19 09:29:15;;;;;;;7.68;6.30;;;;;;;35.12;29.52;100311.25;5363328;33;34259;-89
2023/06/19 09:32:25;;;;;;;11.38;6.32;;;;;;;35.64;27.36;100304.91;5371558;33;34284;-88
2023/06/19 09:35:28;;;;;;;7.45;6.75;;;;;;;35.92;28.20;100300.47;5392640;33;33310;-88
2023/06/19 09:38:40;;;;;;;7.25;6.55;;;;;;;34.17;29.71;100307.31;5392996;33;32624;-89
2023/06/19 09:41:47;;;;;;;8.32;6.50;;;;;;;33.81;30.59;100296.19;5381964;33;34556;-89
2023/06/19 09:44:54;;;;;;;7.30;6.60;;;;;;;34.52;31.79;100297.44;5386821;33;35398;-92
2023/06/19 09:47:57;;;;;;;7.60;6.80;;;;;;;35.15;29.97;100297.00;5382719;32;33915;-91
2023/06/19 09:51:23;;;;;;;7.60;6.70;;;;;;;35.30;29.22;100297.28;5384385;33;33556;-93
2023/06/19 09:54:26;;;;;;;8.23;5.93;;;;;;;35.63;28.96;100291.37;5385726;33;34376;-89
2023/06/19 09:57:30;;;;;;;9.35;6.62;;;;;;;36.29;27.18;100288.13;5381078;33;33999;-89
2023/06/19 10:00:34;;;;;;;7.50;6.53;;;;;;;35.63;26.54;100292.19;5393642;33;33813;-90
2023/06/19 10:03:37;;;;;;;7.32;6.53;;;;;;;34.71;28.15;100284.44;5397066;33;34592;-89
2023/06/19 10:06:47;;;;;;;9.68;6.90;;;;;;;33.87;29.44;100275.16;5394415;33;33887;-89
2023/06/19 10:09:59;;;;;;;9.93;6.82;;;;;;;34.74;28.79;100274.84;5396349;33;33816;-88
2023/06/19 10:13:13;;;;;;;6.85;6.15;;;;;;;35.23;28.21;100276.50;5395855;33;34114;-88
2023/06/19 10:16:21;;;;;;;13.18;6.82;;;;;;;34.57;29.12;100264.56;5398997;33;33500;-92
2023/06/19 10:49:23;;;;;;;7.70;6.90;;;;;;;33.54;30.57;100246.22;5216306;30;20185;-89
2023/06/19 10:52:30;;;;;;;13.40;7.15;;;;;;;33.05;30.95;100249.78;5439251;32;33707;-89
2023/06/19 10:55:32;;;;;;;10.32;7.45;;;;;;;33.18;31.42;100244.13;5437156;32;34336;-89
2023/06/19 10:58:38;;;;;;;10.85;6.50;;;;;;;33.34;30.77;100244.56;5435696;32;34702;-90
2023/06/19 11:01:44;;;;;;;8.88;7.25;;;;;;;33.32;30.26;100243.94;5434328;32;33885;-89
2023/06/19 11:04:47;;;;;;;9.30;6.68;;;;;;;33.01;30.66;100235.66;5422209;32;33928;-88
2023/06/19 11:07:59;;;;;;;8.20;6.35;;;;;;;35.00;28.15;100245.09;5433793;32;34423;-88
2023/06/19 11:11:03;;;;;;;9.15;6.10;;;;;;;34.10;27.98;100248.81;5443167;32;34534;-89
2023/06/19 11:14:06;;;;;;;6.97;6.22;;;;;;;33.73;30.38;100239.59;5438731;32;33938;-89
2023/06/19 11:17:09;;;;;;;7.80;6.55;;;;;;;34.58;28.42;100237.88;5445765;32;33576;-89
2023/06/19 11:20:16;;;;;;;7.50;6.72;;;;;;;33.90;29.65;100244.44;5437173;32;35203;-89
2023/06/19 11:23:26;;;;;;;14.07;6.90;;;;;;;33.31;30.88;100239.53;5434890;32;33619;-89
2023/06/19 11:26:34;;;;;;;7.60;6.85;;;;;;;33.50;29.74;100232.12;5433934;32;35193;-91
2023/06/19 11:29:37;;;;;;;8.00;7.20;;;;;;;33.86;29.88;100233.06;5434791;32;35206;-92
2023/06/19 11:32:44;;;;;;;7.97;7.00;;;;;;;34.09;28.88;100236.94;5430673;32;33865;-91
2023/06/19 11:35:57;;;;;;;14.93;7.43;;;;;;;33.91;29.70;100228.75;5432984;32;34506;-90
2023/06/19 11:39:00;;;;;;;8.43;6.75;;;;;;;34.28;28.46;100223.94;5430423;32;33893;-90
2023/06/19 11:42:04;;;;;;;9.98;6.95;;;;;;;34.67;28.61;100229.00;5447656;27;35968;-90
2023/06/19 11:48:45;;;;;;;9.45;6.87;;;;;;;34.74;27.24;100228.03;924343;27;20408;-89
2023/06/19 11:52:08;;;;;;;8.75;7.03;;;;;;;34.09;28.45;100212.19;5433836;32;30997;-89
2023/06/19 11:55:11;;;;;;;8.90;7.55;;;;;;;33.85;29.98;100211.28;5434721;32;34237;-88
2023/06/19 11:58:15;;;;;;;8.60;7.40;;;;;;;33.67;29.31;100209.44;5434497;32;33541;-88
2023/06/19 12:01:17;;;;;;;9.77;7.25;;;;;;;33.60;31.03;100204.06;5434143;32;33937;-88
2023/06/19 12:04:21;;;;;;;7.85;6.78;;;;;;;33.55;29.89;100207.50;5435061;32;34232;-88
2023/06/19 12:07:25;;;;;;;7.22;6.60;;;;;;;33.14;29.40;100209.09;5434551;32;32824;-88
2023/06/19 12:10:28;;;;;;;10.55;6.90;;;;;;;33.33;28.92;100216.22;5438026;32;33558;-88
2023/06/19 12:13:31;;;;;;;9.13;6.95;;;;;;;32.91;30.04;100205.97;5444150;32;34522;-89
2023/06/19 12:16:34;;;;;;;8.07;6.85;;;;;;;33.73;28.66;100208.50;5437561;32;34065;-88
2023/06/19 12:19:36;;;;;;;7.93;6.90;;;;;;;34.06;28.79;100203.56;5434939;32;33857;-89
2023/06/19 12:22:40;;;;;;;9.23;7.57;;;;;;;32.97;29.03;100200.66;5438706;32;33975;-89
2023/06/19 12:25:43;;;;;;;8.18;7.30;;;;;;;32.20;31.53;100192.50;5442809;32;33930;-88
2023/06/19 12:28:46;;;;;;;8.98;7.40;;;;;;;33.10;30.54;100186.75;5446762;32;34116;-88
2023/06/19 12:31:49;;;;;;;8.18;7.28;;;;;;;32.56;29.98;100191.97;5436126;32;33972;-88
2023/06/19 12:34:53;;;;;;;7.55;6.85;;;;;;;32.90;30.04;100178.72;5436411;32;33755;-88
2023/06/19 12:37:56;;;;;;;8.00;7.18;;;;;;;33.38;30.05;100178.97;5435158;32;34070;-88
2023/06/19 12:40:59;;;;;;;8.80;7.32;;;;;;;32.46;30.85;100178.78;5432277;32;32206;-88
2023/06/19 12:44:02;;;;;;;7.95;7.22;;;;;;;32.38;30.72;100168.91;5437286;32;33824;-87
2023/06/19 12:47:05;;;;;;;8.30;7.07;;;;;;;32.13;30.27;100167.03;5434763;32;34379;-87
2023/06/19 12:50:08;;;;;;;8.38;7.50;;;;;;;32.34;30.33;100173.16;5435316;32;33612;-89
2023/06/19 12:53:11;;;;;;;9.05;7.25;;;;;;;32.81;30.32;100167.19;5440998;32;34771;-93
2023/06/19 12:56:14;;;;;;;11.43;7.30;;;;;;;32.30;30.85;100161.81;5440649;32;35162;-93
2023/06/19 12:59:17;;;;;;;11.38;7.30;;;;;;;32.70;30.46;100156.97;5438359;32;35286;-93
2023/06/19 13:02:21;;;;;;;8.23;7.40;;;;;;;32.85;29.68;100160.19;5437599;32;33879;-90
2023/06/19 13:05:24;;;;;;;8.85;7.40;;;;;;;32.47;31.57;100153.84;5437000;32;33618;-87
2023/06/19 13:08:26;;;;;;;8.25;7.50;;;;;;;32.83;30.15;100153.25;5420243;32;34314;-86
2023/06/19 13:11:29;;;;;;;10.48;7.95;;;;;;;32.22;30.00;100154.69;5438310;32;34070;-87
2023/06/19 13:14:32;;;;;;;10.80;7.43;;;;;;;32.53;31.31;100152.13;5438695;32;34619;-87
2023/06/19 13:17:35;;;;;;;10.23;7.70;;;;;;;32.62;30.40;100152.66;5436316;32;33820;-86
2023/06/19 13:20:37;;;;;;;9.85;7.37;;;;;;;32.65;29.98;100149.44;5433288;32;34394;-85
2023/06/19 13:23:40;;;;;;;10.90;7.80;;;;;;;31.90;31.92;100140.22;5435472;32;33903;-86
2023/06/19 13:26:44;;;;;;;8.32;7.55;;;;;;;31.78;31.46;100140.09;5432654;32;33425;-86
2023/06/19 13:41:05;;;;;;;10.68;7.93;;;;;;;30.26;34.93;100135.69;5437415;32;20101;-89
2023/06/19 13:48:34;;;;;;;8.18;7.37;;;;;;;31.26;32.96;100135.59;5269833;30;20400;-89
2023/06/19 13:51:37;;;;;;;8.90;8.00;;;;;;;31.64;32.10;100131.97;5436587;32;33815;-88
2023/06/19 13:54:40;;;;;;;8.05;7.28;;;;;;;31.63;31.89;100141.25;5437797;32;33991;-89
2023/06/19 13:57:43;;;;;;;8.82;7.50;;;;;;;31.53;31.95;100143.66;5449968;32;33990;-90
2023/06/19 14:00:46;;;;;;;8.60;7.80;;;;;;;31.89;32.50;100138.53;5442815;32;35303;-89
2023/06/19 14:03:49;;;;;;;9.45;7.60;;;;;;;31.96;31.10;100134.69;5438049;32;34825;-90
2023/06/19 14:06:51;;;;;;;8.05;7.20;;;;;;;32.09;31.29;100138.38;5439415;32;34404;-89
2023/06/19 14:09:54;;;;;;;11.63;7.37;;;;;;;31.88;31.29;100143.22;5437269;32;33505;-90
2023/06/19 14:12:57;;;;;;;8.05;7.35;;;;;;;31.02;32.38;100135.28;5437464;32;33891;-90
2023/06/19 14:16:01;;;;;;;8.45;7.57;;;;;;;31.60;31.35;100133.47;5428316;32;34108;-90
2023/06/19 14:19:04;;;;;;;9.40;7.85;;;;;;;30.98;31.56;100132.13;5437155;32;34045;-90
2023/06/19 14:22:07;;;;;;;8.60;7.03;;;;;;;31.21;31.97;100133.47;5431565;32;34011;-91
2023/06/19 14:25:09;;;;;;;8.15;7.05;;;;;;;31.28;33.39;100125.25;5419635;32;34213;-91
2023/06/19 14:28:14;;;;;;;8.32;7.40;;;;;;;31.52;33.35;100122.78;5418869;32;32933;-91
2023/06/19 14:31:17;;;;;;;8.48;7.47;;;;;;;30.82;33.30;100124.41;5418926;32;33490;-91
2023/06/19 14:34:20;;;;;;;12.68;7.43;;;;;;;30.39;33.42;100124.75;5419938;32;33422;-91
2023/06/19 14:37:23;;;;;;;10.07;7.80;;;;;;;30.36;34.70;100124.28;5419636;32;33493;-91
